WXM80 ListenWXM80 Stop

You find our weather info also at:

UK Metoffice

WeatherCloud

Weather Underground

Northeastern Weather Network

AWEKAS

Citizen Weather Observer Program (CWOP)

HAMweather, WeatherForYou, PWS Weather


Weather Underground History page Text

Daily Summary for April 12, 2017 Units:  English    Metric   Both
« Previous Day
Next Day »
Daily Weekly Monthly Yearly Custom
  High: Low: Average:
Temperature: 71.7 °F 48.2 °F 59.1 °F
Dew Point: 60.0 °F 45.9 °F 52.6 °F
Humidity: 95 % 59 % 80 %
Wind Speed: 6.9 mph 0.0 mph 0.8 mph
Wind Gust: 9.2 mph - -
Wind:- - SW
Pressure: 30.21 in 30.05 in -
Precipitation: 0.00 in    
Historical Graphs
 
 
Tabular Data for April 12, 2017
Time Temperature Dew Point Pressure Wind Wind Speed Wind Gust Humidity Rainfall Rate (Hourly)
00:02 55.9 °F 50.2 °F 30.08 in Calm     81 % 0.00 in
00:07 55.7 °F 50.0 °F 30.08 in Calm   1.2 mph 81 % 0.00 in
00:09 55.4 °F 49.3 °F 30.08 in North 0.5 mph 1.2 mph 80 % 0.00 in
00:14 54.8 °F 48.7 °F 30.08 in North 0.6 mph 2.0 mph 80 % 0.00 in
00:19 54.5 °F 48.5 °F 30.08 in Calm   1.2 mph 80 % 0.00 in
00:24 54.2 °F 48.5 °F 30.07 in North 0.3 mph 1.2 mph 81 % 0.00 in
00:29 53.9 °F 48.5 °F 30.07 in Calm     82 % 0.00 in
00:34 53.7 °F 48.3 °F 30.07 in Calm     82 % 0.00 in
00:39 53.5 °F 48.5 °F 30.08 in North 2.6 mph 3.5 mph 83 % 0.00 in
00:44 53.3 °F 48.3 °F 30.08 in Calm     83 % 0.00 in
00:49 53.2 °F 48.5 °F 30.08 in Calm     84 % 0.00 in
00:54 53.0 °F 48.3 °F 30.08 in Calm     84 % 0.00 in
00:59 52.8 °F 48.4 °F 30.08 in Calm     85 % 0.00 in
01:04 52.7 °F 48.3 °F 30.08 in Calm     85 % 0.00 in
01:09 52.6 °F 48.2 °F 30.08 in Calm     85 % 0.00 in
01:14 52.5 °F 48.1 °F 30.08 in Calm     85 % 0.00 in
01:19 52.4 °F 48.3 °F 30.08 in Calm     86 % 0.00 in
01:24 52.3 °F 48.2 °F 30.08 in Calm     86 % 0.00 in
01:29 52.2 °F 48.1 °F 30.08 in North 0.2 mph 1.2 mph 86 % 0.00 in
01:34 52.1 °F 48.3 °F 30.08 in Calm     87 % 0.00 in
01:39 52.1 °F 48.3 °F 30.08 in Calm     87 % 0.00 in
01:44 52.0 °F 48.6 °F 30.07 in North 0.1 mph 1.2 mph 88 % 0.00 in
01:49 52.1 °F 49.0 °F 30.07 in North 1.0 mph 2.3 mph 89 % 0.00 in
01:54 52.1 °F 49.0 °F 30.07 in North 0.7 mph 1.2 mph 89 % 0.00 in
01:59 52.1 °F 49.0 °F 30.08 in Calm     89 % 0.00 in
02:04 52.0 °F 48.9 °F 30.07 in Calm     89 % 0.00 in
02:09 52.1 °F 49.3 °F 30.07 in Calm     90 % 0.00 in
02:14 52.0 °F 49.2 °F 30.06 in North 0.9 mph 2.3 mph 90 % 0.00 in
02:19 52.0 °F 48.9 °F 30.06 in North 0.2 mph 2.3 mph 89 % 0.00 in
02:24 52.0 °F 49.2 °F 30.06 in Calm   1.2 mph 90 % 0.00 in
02:29 52.0 °F 49.2 °F 30.06 in North 0.3 mph 1.2 mph 90 % 0.00 in
02:34 51.9 °F 49.1 °F 30.06 in Calm     90 % 0.00 in
02:39 52.0 °F 49.5 °F 30.06 in Calm     91 % 0.00 in
02:44 52.0 °F 49.5 °F 30.05 in Calm     91 % 0.00 in
02:49 52.0 °F 49.5 °F 30.06 in Calm   1.2 mph 91 % 0.00 in
02:54 52.0 °F 49.5 °F 30.06 in North 0.1 mph 1.2 mph 91 % 0.00 in
02:59 52.0 °F 49.5 °F 30.06 in Calm     91 % 0.00 in
03:04 51.9 °F 49.4 °F 30.06 in Calm     91 % 0.00 in
03:09 51.9 °F 49.4 °F 30.06 in Calm     91 % 0.00 in
03:14 51.9 °F 49.4 °F 30.05 in Calm     91 % 0.00 in
03:19 51.7 °F 48.9 °F 30.05 in Calm     90 % 0.00 in
03:24 51.5 °F 48.4 °F 30.05 in Calm     89 % 0.00 in
03:29 51.4 °F 48.3 °F 30.05 in Calm     89 % 0.00 in
03:34 51.2 °F 48.1 °F 30.05 in Calm     89 % 0.00 in
03:39 51.1 °F 48.0 °F 30.05 in Calm     89 % 0.00 in
03:44 51.0 °F 47.6 °F 30.05 in Calm     88 % 0.00 in
03:49 50.8 °F 47.4 °F 30.05 in Calm     88 % 0.00 in
03:54 50.6 °F 47.2 °F 30.05 in Calm     88 % 0.00 in
03:59 50.4 °F 47.0 °F 30.05 in Calm     88 % 0.00 in
04:04 50.3 °F 46.9 °F 30.05 in Calm     88 % 0.00 in
04:09 50.2 °F 46.8 °F 30.05 in Calm     88 % 0.00 in
04:14 50.0 °F 46.9 °F 30.05 in Calm     89 % 0.00 in
04:19 50.0 °F 46.9 °F 30.05 in Calm   2.3 mph 89 % 0.00 in
04:24 49.9 °F 46.8 °F 30.05 in North 0.1 mph 1.0 mph 89 % 0.00 in
04:29 49.8 °F 47.0 °F 30.05 in Calm     90 % 0.00 in
04:34 49.7 °F 46.9 °F 30.05 in North 0.1 mph 1.0 mph 90 % 0.00 in
04:39 49.7 °F 46.9 °F 30.05 in North 0.5 mph 1.2 mph 90 % 0.00 in
04:44 49.6 °F 47.1 °F 30.05 in Calm     91 % 0.00 in
04:49 49.6 °F 47.1 °F 30.05 in Calm     91 % 0.00 in
04:54 49.5 °F 47.0 °F 30.05 in Calm     91 % 0.00 in
04:59 49.5 °F 47.0 °F 30.06 in Calm     91 % 0.00 in
05:04 49.4 °F 46.9 °F 30.06 in Calm     91 % 0.00 in
05:09 49.3 °F 46.8 °F 30.06 in Calm     91 % 0.00 in
05:14 49.3 °F 46.8 °F 30.07 in Calm     91 % 0.00 in
05:19 49.1 °F 46.6 °F 30.07 in Calm     91 % 0.00 in
05:24 49.0 °F 46.5 °F 30.07 in Calm     91 % 0.00 in
05:29 49.0 °F 46.5 °F 30.07 in Calm     91 % 0.00 in
05:34 48.8 °F 46.3 °F 30.07 in Calm     91 % 0.00 in
05:39 48.7 °F 46.2 °F 30.07 in Calm     91 % 0.00 in
05:44 48.7 °F 46.2 °F 30.07 in Calm     91 % 0.00 in
05:49 48.6 °F 46.1 °F 30.07 in Calm     91 % 0.00 in
05:54 48.5 °F 46.0 °F 30.07 in Calm     91 % 0.00 in
05:59 48.4 °F 45.9 °F 30.07 in Calm     91 % 0.00 in
06:04 48.3 °F 46.1 °F 30.08 in North 1.0 mph 2.3 mph 92 % 0.00 in
06:09 48.3 °F 46.1 °F 30.07 in Calm     92 % 0.00 in
06:14 48.3 °F 46.1 °F 30.07 in Calm     92 % 0.00 in
06:19 48.2 °F 46.0 °F 30.07 in Calm     92 % 0.00 in
06:24 48.2 °F 46.0 °F 30.07 in Calm     92 % 0.00 in
06:29 48.2 °F 46.0 °F 30.07 in Calm     92 % 0.00 in
06:35 48.2 °F 46.3 °F 30.08 in Calm     93 % 0.00 in
06:40 48.2 °F 46.3 °F 30.08 in Calm     93 % 0.00 in
06:45 48.2 °F 46.3 °F 30.08 in Calm     93 % 0.00 in
06:50 48.3 °F 46.4 °F 30.08 in Calm     93 % 0.00 in
06:55 48.4 °F 46.5 °F 30.08 in Calm     93 % 0.00 in
07:00 48.6 °F 46.7 °F 30.08 in Calm     93 % 0.00 in
07:05 48.8 °F 47.2 °F 30.08 in Calm     94 % 0.00 in
07:10 49.1 °F 47.4 °F 30.08 in Calm     94 % 0.00 in
07:15 49.4 °F 48.0 °F 30.08 in Calm     95 % 0.00 in
07:20 49.7 °F 48.3 °F 30.08 in Calm     95 % 0.00 in
07:25 50.2 °F 48.8 °F 30.07 in Calm     95 % 0.00 in
07:30 50.6 °F 49.2 °F 30.07 in Calm     95 % 0.00 in
07:35 51.0 °F 49.6 °F 30.08 in NNW 2.0 mph 3.5 mph 95 % 0.00 in
07:40 51.5 °F 50.1 °F 30.07 in NNW 1.0 mph 1.2 mph 95 % 0.00 in
07:45 51.8 °F 50.4 °F 30.08 in North 1.6 mph 3.0 mph 95 % 0.00 in
07:50 52.2 °F 50.8 °F 30.08 in North 0.8 mph 3.5 mph 95 % 0.00 in
07:55 52.5 °F 50.8 °F 30.08 in Calm   2.3 mph 94 % 0.00 in
08:00 52.8 °F 51.1 °F 30.08 in NNE 1.3 mph 3.5 mph 94 % 0.00 in
08:05 53.0 °F 50.7 °F 30.08 in NNE 0.1 mph 1.2 mph 92 % 0.00 in
08:11 53.2 °F 50.6 °F 30.08 in NNE 0.3 mph 2.0 mph 91 % 0.00 in
08:16 53.4 °F 50.8 °F 30.08 in Calm   1.2 mph 91 % 0.00 in
08:21 53.7 °F 50.8 °F 30.08 in NNE 0.1 mph 1.0 mph 90 % 0.00 in
08:26 54.0 °F 51.4 °F 30.09 in NNE 0.1 mph 1.2 mph 91 % 0.00 in
08:31 54.4 °F 51.5 °F 30.09 in Calm   1.2 mph 90 % 0.00 in
08:36 54.9 °F 51.7 °F 30.09 in NNE 0.6 mph 1.2 mph 89 % 0.00 in
08:41 55.5 °F 52.3 °F 30.09 in NNE 1.0 mph 2.3 mph 89 % 0.00 in
08:46 56.0 °F 52.2 °F 30.09 in NNE 0.5 mph 1.2 mph 87 % 0.00 in
08:51 56.4 °F 52.3 °F 30.08 in NNE 1.0 mph 2.3 mph 86 % 0.00 in
08:56 56.7 °F 52.6 °F 30.08 in NNE 0.2 mph 1.2 mph 86 % 0.00 in
09:01 57.0 °F 52.5 °F 30.08 in NNE 1.2 mph 3.5 mph 85 % 0.00 in
09:06 57.3 °F 52.5 °F 30.08 in NNE 1.8 mph 3.5 mph 84 % 0.00 in
09:11 57.6 °F 52.8 °F 30.08 in NNE 0.7 mph 2.3 mph 84 % 0.00 in
09:16 57.9 °F 53.1 °F 30.09 in NNE 0.4 mph 1.2 mph 84 % 0.00 in
09:21 58.3 °F 53.5 °F 30.09 in Calm   1.2 mph 84 % 0.00 in
09:26 59.0 °F 54.2 °F 30.09 in NNE 0.6 mph 3.5 mph 84 % 0.00 in
09:31 59.5 °F 54.0 °F 30.09 in NE 0.8 mph 1.2 mph 82 % 0.00 in
09:36 59.5 °F 53.3 °F 30.09 in NE 1.0 mph 2.3 mph 80 % 0.00 in
09:41 59.5 °F 53.0 °F 30.09 in NE 0.2 mph 1.2 mph 79 % 0.00 in
09:46 59.9 °F 54.7 °F 30.09 in NE 0.5 mph 2.3 mph 83 % 0.00 in
09:51 60.6 °F 54.7 °F 30.09 in NE 0.9 mph 2.3 mph 81 % 0.00 in
09:56 61.2 °F 55.0 °F 30.10 in NNW 2.1 mph 3.5 mph 80 % 0.00 in
10:01 61.2 °F 53.2 °F 30.10 in NNW 2.2 mph 3.5 mph 75 % 0.00 in
10:07 61.2 °F 53.6 °F 30.10 in Calm   2.3 mph 76 % 0.00 in
10:12 61.3 °F 53.3 °F 30.10 in NW 1.0 mph 3.5 mph 75 % 0.00 in
10:17 61.4 °F 53.4 °F 30.10 in NW 1.9 mph 3.5 mph 75 % 0.00 in
10:22 61.5 °F 53.9 °F 30.11 in NW 2.3 mph 3.5 mph 76 % 0.00 in
10:27 61.6 °F 53.6 °F 30.11 in NW 1.7 mph 4.0 mph 75 % 0.00 in
10:32 61.6 °F 54.0 °F 30.10 in Calm   1.2 mph 76 % 0.00 in
10:37 62.0 °F 54.3 °F 30.11 in Calm   1.0 mph 76 % 0.00 in
10:42 62.4 °F 55.1 °F 30.11 in Calm   1.2 mph 77 % 0.00 in
10:47 62.8 °F 55.5 °F 30.11 in Calm     77 % 0.00 in
10:52 63.2 °F 55.1 °F 30.11 in WNW 1.7 mph 3.5 mph 75 % 0.00 in
10:57 63.9 °F 55.8 °F 30.11 in WNW 1.4 mph 3.0 mph 75 % 0.00 in
11:02 64.4 °F 55.6 °F 30.11 in WNW 2.0 mph 5.0 mph 73 % 0.00 in
11:07 64.9 °F 55.7 °F 30.11 in WNW 2.0 mph 6.0 mph 72 % 0.00 in
11:12 65.3 °F 54.9 °F 30.11 in West 3.0 mph 5.0 mph 69 % 0.00 in
11:17 65.4 °F 54.6 °F 30.11 in WNW 2.0 mph 4.0 mph 68 % 0.00 in
11:22 65.1 °F 54.3 °F 30.12 in WNW 2.0 mph 5.0 mph 68 % 0.00 in
11:27 64.9 °F 54.0 °F 30.12 in WNW 3.0 mph 6.0 mph 68 % 0.00 in
11:32 64.2 °F 53.4 °F 30.12 in WNW 3.0 mph 6.0 mph 68 % 0.00 in
11:37 63.5 °F 53.1 °F 30.13 in WNW 4.0 mph 8.1 mph 69 % 0.00 in
11:42 62.5 °F 53.0 °F 30.13 in West 2.0 mph 4.6 mph 71 % 0.00 in
11:47 62.1 °F 53.3 °F 30.13 in West 1.4 mph 5.8 mph 73 % 0.00 in
11:52 62.0 °F 53.6 °F 30.13 in SSW 1.9 mph 5.0 mph 74 % 0.00 in
11:57 62.1 °F 54.4 °F 30.13 in WSW 2.0 mph 4.0 mph 76 % 0.00 in
12:02 62.5 °F 54.5 °F 30.13 in West 3.7 mph 5.8 mph 75 % 0.00 in
12:07 63.0 °F 54.6 °F 30.13 in WSW 2.3 mph 6.0 mph 74 % 0.00 in
12:12 63.4 °F 55.0 °F 30.13 in SW 3.7 mph 6.9 mph 74 % 0.00 in
12:17 63.7 °F 54.9 °F 30.13 in WNW 6.9 mph 9.2 mph 73 % 0.00 in
12:22 63.9 °F 54.7 °F 30.13 in West 4.8 mph 8.1 mph 72 % 0.00 in
12:27 63.9 °F 54.7 °F 30.14 in NW 4.6 mph 8.1 mph 72 % 0.00 in
12:32 63.9 °F 54.7 °F 30.14 in SW 2.5 mph 6.9 mph 72 % 0.00 in
12:37 63.8 °F 54.2 °F 30.14 in WNW 2.7 mph 6.9 mph 71 % 0.00 in
12:42 63.8 °F 53.8 °F 30.14 in WNW 4.5 mph 6.9 mph 70 % 0.00 in
12:47 63.9 °F 53.5 °F 30.15 in WNW 4.8 mph 9.2 mph 69 % 0.00 in
12:52 64.0 °F 53.2 °F 30.15 in WNW 4.1 mph 8.1 mph 68 % 0.00 in
12:57 63.9 °F 54.3 °F 30.16 in West 2.8 mph 6.0 mph 71 % 0.00 in
13:02 63.8 °F 55.7 °F 30.15 in NW 3.1 mph 5.0 mph 75 % 0.00 in
13:07 63.5 °F 56.5 °F 30.14 in West 2.4 mph 3.5 mph 78 % 0.00 in
13:13 63.1 °F 56.1 °F 30.13 in WNW 0.4 mph 3.5 mph 78 % 0.00 in
13:18 62.8 °F 56.5 °F 30.13 in WNW 0.1 mph 1.2 mph 80 % 0.00 in
13:23 62.5 °F 56.6 °F 30.14 in WNW 3.8 mph 6.0 mph 81 % 0.00 in
13:28 62.1 °F 56.2 °F 30.14 in WNW 3.5 mph 6.9 mph 81 % 0.00 in
13:33 61.6 °F 56.0 °F 30.14 in NW 1.4 mph 3.5 mph 82 % 0.00 in
13:38 61.3 °F 56.1 °F 30.13 in West 3.4 mph 4.6 mph 83 % 0.00 in
13:43 61.0 °F 56.1 °F 30.13 in Calm   2.3 mph 84 % 0.00 in
13:48 61.0 °F 56.5 °F 30.12 in West 0.9 mph 3.5 mph 85 % 0.00 in
13:53 61.0 °F 56.5 °F 30.12 in Calm     85 % 0.00 in
13:58 61.0 °F 56.8 °F 30.11 in Calm     86 % 0.00 in
14:03 61.1 °F 56.9 °F 30.11 in Calm     86 % 0.00 in
14:08 61.2 °F 57.0 °F 30.11 in Calm     86 % 0.00 in
14:13 61.3 °F 57.1 °F 30.10 in Calm     86 % 0.00 in
14:18 61.5 °F 57.3 °F 30.09 in West 0.2 mph 1.2 mph 86 % 0.00 in
14:23 61.7 °F 57.1 °F 30.09 in West 0.3 mph 1.2 mph 85 % 0.00 in
14:28 62.0 °F 57.4 °F 30.09 in West 0.4 mph 2.3 mph 85 % 0.00 in
14:33 62.2 °F 57.0 °F 30.09 in WNW 0.2 mph 1.2 mph 83 % 0.00 in
14:38 62.5 °F 57.9 °F 30.09 in NW 1.1 mph 3.5 mph 85 % 0.00 in
14:43 62.9 °F 57.7 °F 30.09 in NW 1.5 mph 3.5 mph 83 % 0.00 in
14:48 63.2 °F 57.9 °F 30.09 in North 1.9 mph 3.5 mph 83 % 0.00 in
14:53 63.5 °F 57.6 °F 30.09 in North 0.2 mph 2.3 mph 81 % 0.00 in
14:58 63.9 °F 58.3 °F 30.09 in North 0.4 mph 1.2 mph 82 % 0.00 in
15:03 64.2 °F 58.2 °F 30.08 in North 0.4 mph 2.3 mph 81 % 0.00 in
15:08 64.6 °F 58.6 °F 30.09 in North 2.1 mph 3.5 mph 81 % 0.00 in
15:13 65.0 °F 59.0 °F 30.08 in NW 0.3 mph 1.2 mph 81 % 0.00 in
15:19 65.4 °F 59.1 °F 30.09 in NW 1.0 mph 2.3 mph 80 % 0.00 in
15:24 65.8 °F 59.5 °F 30.09 in NNW 0.4 mph 2.3 mph 80 % 0.00 in
15:29 66.4 °F 60.0 °F 30.08 in NNW 0.7 mph 3.5 mph 80 % 0.00 in
15:34 66.9 °F 58.7 °F 30.08 in NNW 1.2 mph 3.5 mph 75 % 0.00 in
15:39 67.4 °F 59.6 °F 30.08 in North 1.1 mph 3.5 mph 76 % 0.00 in
15:44 67.9 °F 59.7 °F 30.08 in North 1.1 mph 2.3 mph 75 % 0.00 in
15:49 68.2 °F 59.6 °F 30.08 in North 0.6 mph 1.2 mph 74 % 0.00 in
15:54 68.6 °F 59.2 °F 30.08 in SW 0.2 mph 1.2 mph 72 % 0.00 in
15:59 68.9 °F 57.9 °F 30.08 in West 1.1 mph 3.0 mph 68 % 0.00 in
16:04 69.2 °F 59.0 °F 30.08 in Calm   1.0 mph 70 % 0.00 in
16:09 69.3 °F 59.1 °F 30.08 in West 0.9 mph 1.0 mph 70 % 0.00 in
16:14 69.5 °F 58.1 °F 30.08 in West 1.5 mph 3.0 mph 67 % 0.00 in
16:19 69.8 °F 57.5 °F 30.08 in SW 2.0 mph 4.6 mph 65 % 0.00 in
16:24 70.0 °F 56.4 °F 30.08 in West 3.6 mph 5.8 mph 62 % 0.00 in
16:29 70.1 °F 56.5 °F 30.08 in WNW 3.5 mph 6.9 mph 62 % 0.00 in
16:34 70.1 °F 56.5 °F 30.08 in NW 1.0 mph 3.5 mph 62 % 0.00 in
16:39 70.2 °F 56.6 °F 30.08 in WSW 1.7 mph 6.9 mph 62 % 0.00 in
16:44 70.4 °F 56.8 °F 30.08 in WSW 1.1 mph 4.0 mph 62 % 0.00 in
16:49 70.4 °F 56.3 °F 30.07 in WSW 4.2 mph 6.9 mph 61 % 0.00 in
16:54 70.4 °F 56.8 °F 30.08 in SW 2.9 mph 5.8 mph 62 % 0.00 in
16:59 70.6 °F 56.9 °F 30.08 in WSW 2.4 mph 6.0 mph 62 % 0.00 in
17:04 70.8 °F 57.1 °F 30.08 in West 0.6 mph 3.0 mph 62 % 0.00 in
17:09 71.0 °F 56.9 °F 30.08 in WNW 4.0 mph 8.0 mph 61 % 0.00 in
17:15 71.1 °F 56.5 °F 30.08 in WSW 4.6 mph 8.1 mph 60 % 0.00 in
17:20 71.2 °F 56.6 °F 30.08 in WSW 3.6 mph 6.0 mph 60 % 0.00 in
17:25 71.3 °F 56.7 °F 30.08 in West 5.3 mph 8.1 mph 60 % 0.00 in
17:30 71.6 °F 56.5 °F 30.08 in West 2.5 mph 6.9 mph 59 % 0.00 in
17:35 71.7 °F 56.6 °F 30.08 in West 3.0 mph 5.8 mph 59 % 0.00 in
17:40 71.6 °F 57.0 °F 30.08 in West 1.4 mph 3.5 mph 60 % 0.00 in
17:45 71.4 °F 56.8 °F 30.09 in West 1.7 mph 3.5 mph 60 % 0.00 in
17:50 71.3 °F 57.2 °F 30.09 in WSW 0.8 mph 2.3 mph 61 % 0.00 in
17:55 71.3 °F 57.2 °F 30.09 in West 3.1 mph 4.6 mph 61 % 0.00 in
18:00 71.4 °F 57.2 °F 30.09 in WSW 1.6 mph 4.0 mph 61 % 0.00 in
18:05 71.2 °F 57.1 °F 30.09 in SW 2.8 mph 4.0 mph 61 % 0.00 in
18:10 71.0 °F 56.9 °F 30.09 in SSW 1.0 mph 3.5 mph 61 % 0.00 in
18:15 71.0 °F 57.3 °F 30.09 in SW 0.8 mph 4.0 mph 62 % 0.00 in
18:20 70.8 °F 57.1 °F 30.09 in WSW 0.2 mph 2.3 mph 62 % 0.00 in
18:25 70.6 °F 56.9 °F 30.09 in Calm     62 % 0.00 in
18:30 70.6 °F 56.5 °F 30.09 in WSW 0.9 mph 2.0 mph 61 % 0.00 in
18:35 70.6 °F 56.5 °F 30.09 in Calm     61 % 0.00 in
18:40 70.5 °F 56.9 °F 30.09 in Calm     62 % 0.00 in
18:45 70.3 °F 56.7 °F 30.09 in Calm     62 % 0.00 in
18:50 70.2 °F 56.6 °F 30.09 in Calm   1.2 mph 62 % 0.00 in
18:55 70.0 °F 56.8 °F 30.09 in Calm     63 % 0.00 in
19:00 69.9 °F 57.2 °F 30.09 in Calm     64 % 0.00 in
19:05 69.7 °F 57.0 °F 30.09 in Calm     64 % 0.00 in
19:10 69.5 °F 56.8 °F 30.09 in Calm     64 % 0.00 in
19:15 69.3 °F 56.6 °F 30.09 in Calm     64 % 0.00 in
19:20 69.0 °F 56.7 °F 30.10 in Calm     65 % 0.00 in
19:25 68.7 °F 56.5 °F 30.10 in Calm     65 % 0.00 in
19:26 68.6 °F 56.4 °F 30.10 in Calm     65 % 0.00 in
19:31 68.4 °F 56.2 °F 30.10 in Calm     65 % 0.00 in
19:36 68.0 °F 56.2 °F 30.10 in Calm     66 % 0.00 in
19:41 67.7 °F 56.3 °F 30.11 in Calm     67 % 0.00 in
19:46 67.4 °F 56.5 °F 30.11 in Calm   1.2 mph 68 % 0.00 in
19:51 67.0 °F 56.1 °F 30.11 in Calm     68 % 0.00 in
19:56 66.6 °F 55.7 °F 30.11 in Calm     68 % 0.00 in
20:02 66.2 °F 55.7 °F 30.12 in Calm   1.2 mph 69 % 0.00 in
20:07 65.8 °F 55.3 °F 30.12 in Calm   1.2 mph 69 % 0.00 in
20:12 65.6 °F 55.5 °F 30.12 in Calm     70 % 0.00 in
20:17 65.3 °F 55.3 °F 30.12 in Calm     70 % 0.00 in
20:22 65.0 °F 55.4 °F 30.13 in Calm     71 % 0.00 in
20:27 64.6 °F 55.0 °F 30.13 in Calm     71 % 0.00 in
20:32 64.3 °F 55.1 °F 30.14 in Calm     72 % 0.00 in
20:37 64.0 °F 54.8 °F 30.14 in NNW 0.4 mph 2.0 mph 72 % 0.00 in
20:42 63.6 °F 55.2 °F 30.14 in NW 0.8 mph 3.5 mph 74 % 0.00 in
20:47 63.1 °F 54.7 °F 30.15 in Calm     74 % 0.00 in
20:52 62.7 °F 54.7 °F 30.15 in Calm     75 % 0.00 in
20:57 62.2 °F 54.2 °F 30.15 in Calm     75 % 0.00 in
21:02 61.8 °F 53.8 °F 30.15 in Calm     75 % 0.00 in
21:07 61.4 °F 53.8 °F 30.16 in Calm     76 % 0.00 in
21:12 61.0 °F 53.4 °F 30.16 in Calm     76 % 0.00 in
21:17 60.5 °F 52.5 °F 30.16 in NW 0.4 mph 1.2 mph 75 % 0.00 in
21:22 60.1 °F 52.5 °F 30.16 in Calm     76 % 0.00 in
21:27 59.8 °F 52.2 °F 30.16 in Calm     76 % 0.00 in
21:37 59.3 °F 52.1 °F 30.17 in NW 0.6 mph 1.2 mph 77 % 0.00 in
21:42 58.9 °F 52.1 °F 30.17 in Calm   1.2 mph 78 % 0.00 in
21:47 58.6 °F 52.1 °F 30.17 in Calm     79 % 0.00 in
21:52 58.4 °F 52.3 °F 30.17 in Calm     80 % 0.00 in
21:57 58.2 °F 52.7 °F 30.17 in WSW 2.0 mph 4.0 mph 82 % 0.00 in
22:02 58.1 °F 53.0 °F 30.17 in SW 1.0 mph 2.3 mph 83 % 0.00 in
22:07 58.1 °F 53.3 °F 30.17 in SW 1.0 mph 3.0 mph 84 % 0.00 in
22:12 58.0 °F 52.9 °F 30.17 in Calm   1.0 mph 83 % 0.00 in
22:17 57.9 °F 52.8 °F 30.17 in SW 1.0 mph 3.0 mph 83 % 0.00 in
22:22 57.8 °F 52.7 °F 30.18 in SW 1.0 mph 3.0 mph 83 % 0.00 in
22:27 57.7 °F 52.9 °F 30.18 in Calm     84 % 0.00 in
22:32 57.5 °F 52.4 °F 30.18 in Calm     83 % 0.00 in
22:34 57.5 °F 52.4 °F 30.18 in Calm   2.3 mph 83 % 0.00 in
22:39 57.4 °F 52.3 °F 30.18 in Calm     83 % 0.00 in
22:44 57.2 °F 52.1 °F 30.18 in Calm     83 % 0.00 in
22:49 57.1 °F 52.0 °F 30.18 in Calm     83 % 0.00 in
22:50 57.0 °F 51.9 °F 30.18 in Calm     83 % 0.00 in
22:55 56.8 °F 52.0 °F 30.18 in SW 0.1 mph 1.0 mph 84 % 0.00 in
23:00 56.6 °F 52.1 °F 30.18 in Calm     85 % 0.00 in
23:06 56.4 °F 51.9 °F 30.19 in SW 0.7 mph 2.3 mph 85 % 0.00 in
23:11 56.2 °F 51.7 °F 30.19 in Calm     85 % 0.00 in
23:16 56.0 °F 51.9 °F 30.19 in SW 1.0 mph 2.3 mph 86 % 0.00 in
23:21 55.8 °F 51.7 °F 30.20 in NW 1.5 mph 3.5 mph 86 % 0.00 in
23:26 55.6 °F 51.5 °F 30.20 in NW 0.2 mph 2.3 mph 86 % 0.00 in
23:31 55.5 °F 51.4 °F 30.20 in NW 0.1 mph 1.2 mph 86 % 0.00 in
23:36 55.2 °F 50.8 °F 30.21 in Calm     85 % 0.00 in
23:41 54.9 °F 50.2 °F 30.21 in North 0.2 mph 2.3 mph 84 % 0.00 in
23:46 54.7 °F 50.3 °F 30.21 in Calm   2.3 mph 85 % 0.00 in
23:51 54.5 °F 50.1 °F 30.21 in NNW 2.9 mph 4.6 mph 85 % 0.00 in
23:56 54.4 °F 50.0 °F 30.21 in NNW 3.4 mph 5.0 mph 85 % 0.00 in
Crab Meadow Weather
Compliments of Weather Underground - 3 mb

Script developed by  Jim McMurry - jmcmurry@mwt.net Adapted for the template by  Wim van der Kuil - Leuven-Template.eu

Weather Terms: Flood Stage - The level or stage at which a stream overflows its banks or the stage at which the overflow of a stream begins to cause damage.